sensor_id;sensor_type;location;lat;lon;timestamp;P1;durP1;ratioP1;P2;durP2;ratioP2
54871;SDS011;43914;57.680;11.982;2023-04-16T00:01:26;10.00;;;4.30;;
54871;SDS011;43914;57.680;11.982;2023-04-16T00:03:52;12.60;;;5.10;;
54871;SDS011;43914;57.680;11.982;2023-04-16T00:06:18;11.30;;;3.90;;
54871;SDS011;43914;57.680;11.982;2023-04-16T00:08:43;11.20;;;4.80;;
54871;SDS011;43914;57.680;11.982;2023-04-16T00:11:08;10.10;;;4.20;;
54871;SDS011;43914;57.680;11.982;2023-04-16T00:13:34;9.50;;;4.40;;
54871;SDS011;43914;57.680;11.982;2023-04-16T00:16:00;11.20;;;4.20;;
54871;SDS011;43914;57.680;11.982;2023-04-16T00:18:25;8.80;;;4.00;;
54871;SDS011;43914;57.680;11.982;2023-04-16T00:20:51;10.60;;;4.10;;
54871;SDS011;43914;57.680;11.982;2023-04-16T00:23:17;10.00;;;4.40;;
54871;SDS011;43914;57.680;11.982;2023-04-16T00:25:43;9.00;;;3.90;;
54871;SDS011;43914;57.680;11.982;2023-04-16T00:28:08;9.50;;;4.20;;
54871;SDS011;43914;57.680;11.982;2023-04-16T00:30:34;8.30;;;3.80;;
54871;SDS011;43914;57.680;11.982;2023-04-16T00:32:59;9.80;;;4.20;;
54871;SDS011;43914;57.680;11.982;2023-04-16T00:35:25;8.80;;;4.20;;
54871;SDS011;43914;57.680;11.982;2023-04-16T00:37:51;8.70;;;4.20;;
54871;SDS011;43914;57.680;11.982;2023-04-16T00:40:16;9.20;;;4.10;;
54871;SDS011;43914;57.680;11.982;2023-04-16T00:42:42;10.50;;;4.80;;
54871;SDS011;43914;57.680;11.982;2023-04-16T00:45:08;9.80;;;4.20;;
54871;SDS011;43914;57.680;11.982;2023-04-16T00:47:34;10.20;;;4.30;;
54871;SDS011;43914;57.680;11.982;2023-04-16T00:50:00;9.90;;;4.50;;
54871;SDS011;43914;57.680;11.982;2023-04-16T00:52:27;10.00;;;4.30;;
54871;SDS011;43914;57.680;11.982;2023-04-16T00:54:53;9.80;;;4.20;;
54871;SDS011;43914;57.680;11.982;2023-04-16T00:57:19;9.20;;;4.50;;
54871;SDS011;43914;57.680;11.982;2023-04-16T00:59:47;9.90;;;3.90;;
54871;SDS011;43914;57.680;11.982;2023-04-16T01:02:13;9.50;;;4.40;;
54871;SDS011;43914;57.680;11.982;2023-04-16T01:04:39;9.60;;;4.30;;
54871;SDS011;43914;57.680;11.982;2023-04-16T01:07:05;8.50;;;4.00;;
54871;SDS011;43914;57.680;11.982;2023-04-16T01:09:30;9.80;;;4.10;;
54871;SDS011;43914;57.680;11.982;2023-04-16T01:11:56;10.10;;;4.40;;
54871;SDS011;43914;57.680;11.982;2023-04-16T01:14:21;8.20;;;4.00;;
54871;SDS011;43914;57.680;11.982;2023-04-16T01:16:47;10.10;;;4.60;;
54871;SDS011;43914;57.680;11.982;2023-04-16T01:19:12;10.20;;;4.30;;
54871;SDS011;43914;57.680;11.982;2023-04-16T01:21:37;10.00;;;4.30;;
54871;SDS011;43914;57.680;11.982;2023-04-16T01:24:03;13.60;;;4.50;;
54871;SDS011;43914;57.680;11.982;2023-04-16T01:26:32;9.80;;;4.50;;
54871;SDS011;43914;57.680;11.982;2023-04-16T01:28:58;8.70;;;4.20;;
54871;SDS011;43914;57.680;11.982;2023-04-16T01:31:24;9.70;;;4.40;;
54871;SDS011;43914;57.680;11.982;2023-04-16T01:33:49;10.20;;;4.90;;
54871;SDS011;43914;57.680;11.982;2023-04-16T01:36:15;9.90;;;3.90;;
54871;SDS011;43914;57.680;11.982;2023-04-16T01:38:40;8.70;;;4.20;;
54871;SDS011;43914;57.680;11.982;2023-04-16T01:41:06;9.10;;;4.50;;
54871;SDS011;43914;57.680;11.982;2023-04-16T01:43:32;9.80;;;4.40;;
54871;SDS011;43914;57.680;11.982;2023-04-16T01:49:02;9.40;;;4.20;;
54871;SDS011;43914;57.680;11.982;2023-04-16T01:51:28;9.60;;;4.10;;
54871;SDS011;43914;57.680;11.982;2023-04-16T01:53:54;9.50;;;4.40;;
54871;SDS011;43914;57.680;11.982;2023-04-16T01:56:20;10.30;;;4.40;;
54871;SDS011;43914;57.680;11.982;2023-04-16T01:58:45;11.40;;;4.50;;
54871;SDS011;43914;57.680;11.982;2023-04-16T02:01:11;9.20;;;4.60;;
54871;SDS011;43914;57.680;11.982;2023-04-16T02:03:38;10.80;;;4.70;;
54871;SDS011;43914;57.680;11.982;2023-04-16T02:06:03;10.60;;;5.00;;
54871;SDS011;43914;57.680;11.982;2023-04-16T02:08:29;9.30;;;4.30;;
54871;SDS011;43914;57.680;11.982;2023-04-16T02:10:55;10.50;;;4.10;;
54871;SDS011;43914;57.680;11.982;2023-04-16T02:13:21;10.10;;;4.40;;
54871;SDS011;43914;57.680;11.982;2023-04-16T02:15:49;10.10;;;4.80;;
54871;SDS011;43914;57.680;11.982;2023-04-16T02:18:15;10.70;;;4.90;;
54871;SDS011;43914;57.680;11.982;2023-04-16T02:20:42;9.40;;;4.50;;
54871;SDS011;43914;57.680;11.982;2023-04-16T02:23:08;8.40;;;4.10;;
54871;SDS011;43914;57.680;11.982;2023-04-16T02:25:38;10.40;;;4.60;;
54871;SDS011;43914;57.680;11.982;2023-04-16T02:28:08;9.50;;;4.30;;
54871;SDS011;43914;57.680;11.982;2023-04-16T02:30:35;9.40;;;4.20;;
54871;SDS011;43914;57.680;11.982;2023-04-16T02:33:01;8.50;;;4.30;;
54871;SDS011;43914;57.680;11.982;2023-04-16T02:35:38;9.90;;;4.40;;
54871;SDS011;43914;57.680;11.982;2023-04-16T02:38:05;10.40;;;4.60;;
54871;SDS011;43914;57.680;11.982;2023-04-16T02:40:31;11.20;;;4.30;;
54871;SDS011;43914;57.680;11.982;2023-04-16T02:42:57;10.00;;;4.00;;
54871;SDS011;43914;57.680;11.982;2023-04-16T02:45:23;9.00;;;3.90;;
54871;SDS011;43914;57.680;11.982;2023-04-16T02:47:49;10.00;;;4.10;;
54871;SDS011;43914;57.680;11.982;2023-04-16T02:50:16;9.80;;;4.40;;
54871;SDS011;43914;57.680;11.982;2023-04-16T02:52:41;9.50;;;4.30;;
54871;SDS011;43914;57.680;11.982;2023-04-16T02:55:07;9.10;;;4.10;;
54871;SDS011;43914;57.680;11.982;2023-04-16T02:57:33;9.30;;;4.20;;
54871;SDS011;43914;57.680;11.982;2023-04-16T02:59:59;12.50;;;4.70;;
54871;SDS011;43914;57.680;11.982;2023-04-16T03:02:25;10.30;;;4.10;;
54871;SDS011;43914;57.680;11.982;2023-04-16T03:04:51;9.80;;;4.10;;
54871;SDS011;43914;57.680;11.982;2023-04-16T03:07:17;8.80;;;4.10;;
54871;SDS011;43914;57.680;11.982;2023-04-16T03:09:43;10.10;;;4.10;;
54871;SDS011;43914;57.680;11.982;2023-04-16T03:12:09;9.20;;;4.10;;
54871;SDS011;43914;57.680;11.982;2023-04-16T03:14:35;10.20;;;4.30;;
54871;SDS011;43914;57.680;11.982;2023-04-16T03:17:00;11.00;;;4.50;;
54871;SDS011;43914;57.680;11.982;2023-04-16T03:19:26;9.50;;;4.60;;
54871;SDS011;43914;57.680;11.982;2023-04-16T03:21:51;11.10;;;4.60;;
54871;SDS011;43914;57.680;11.982;2023-04-16T03:24:17;10.80;;;4.10;;
54871;SDS011;43914;57.680;11.982;2023-04-16T03:26:42;9.80;;;4.30;;
54871;SDS011;43914;57.680;11.982;2023-04-16T03:29:08;9.40;;;3.90;;
54871;SDS011;43914;57.680;11.982;2023-04-16T03:31:33;8.80;;;4.50;;
54871;SDS011;43914;57.680;11.982;2023-04-16T03:33:59;10.70;;;4.50;;
54871;SDS011;43914;57.680;11.982;2023-04-16T03:36:24;8.30;;;3.90;;
54871;SDS011;43914;57.680;11.982;2023-04-16T03:38:51;14.30;;;4.60;;
54871;SDS011;43914;57.680;11.982;2023-04-16T03:41:17;8.70;;;4.50;;
54871;SDS011;43914;57.680;11.982;2023-04-16T03:43:43;10.00;;;4.20;;
54871;SDS011;43914;57.680;11.982;2023-04-16T03:46:08;10.90;;;4.40;;
54871;SDS011;43914;57.680;11.982;2023-04-16T03:48:34;9.40;;;4.10;;
54871;SDS011;43914;57.680;11.982;2023-04-16T03:51:00;8.30;;;3.90;;
54871;SDS011;43914;57.680;11.982;2023-04-16T03:53:26;7.80;;;3.50;;
54871;SDS011;43914;57.680;11.982;2023-04-16T03:55:51;9.80;;;4.40;;
54871;SDS011;43914;57.680;11.982;2023-04-16T03:58:17;8.70;;;4.10;;
54871;SDS011;43914;57.680;11.982;2023-04-16T04:00:43;10.80;;;4.50;;
54871;SDS011;43914;57.680;11.982;2023-04-16T04:03:08;8.10;;;3.70;;
54871;SDS011;43914;57.680;11.982;2023-04-16T04:05:35;8.20;;;3.90;;
54871;SDS011;43914;57.680;11.982;2023-04-16T04:08:02;8.60;;;4.00;;
54871;SDS011;43914;57.680;11.982;2023-04-16T04:10:30;10.40;;;3.70;;
54871;SDS011;43914;57.680;11.982;2023-04-16T04:12:56;8.90;;;3.80;;
54871;SDS011;43914;57.680;11.982;2023-04-16T04:15:22;9.40;;;4.30;;
54871;SDS011;43914;57.680;11.982;2023-04-16T04:17:47;8.80;;;3.80;;
54871;SDS011;43914;57.680;11.982;2023-04-16T04:20:13;8.90;;;3.80;;
54871;SDS011;43914;57.680;11.982;2023-04-16T04:22:38;8.80;;;4.00;;
54871;SDS011;43914;57.680;11.982;2023-04-16T04:25:04;9.20;;;4.40;;
54871;SDS011;43914;57.680;11.982;2023-04-16T04:27:30;9.70;;;3.80;;
54871;SDS011;43914;57.680;11.982;2023-04-16T04:29:56;9.50;;;4.40;;
54871;SDS011;43914;57.680;11.982;2023-04-16T04:32:22;8.20;;;3.90;;
54871;SDS011;43914;57.680;11.982;2023-04-16T04:34:47;8.60;;;3.50;;
54871;SDS011;43914;57.680;11.982;2023-04-16T04:37:13;8.10;;;3.90;;
54871;SDS011;43914;57.680;11.982;2023-04-16T04:39:38;11.20;;;3.90;;
54871;SDS011;43914;57.680;11.982;2023-04-16T04:42:04;9.90;;;4.20;;
54871;SDS011;43914;57.680;11.982;2023-04-16T04:44:29;8.30;;;3.50;;
54871;SDS011;43914;57.680;11.982;2023-04-16T04:46:54;11.80;;;4.10;;
54871;SDS011;43914;57.680;11.982;2023-04-16T04:49:20;10.80;;;4.70;;
54871;SDS011;43914;57.680;11.982;2023-04-16T04:51:46;10.30;;;4.40;;
54871;SDS011;43914;57.680;11.982;2023-04-16T04:54:12;8.50;;;3.90;;
54871;SDS011;43914;57.680;11.982;2023-04-16T04:56:37;13.40;;;4.20;;
54871;SDS011;43914;57.680;11.982;2023-04-16T04:59:03;10.10;;;4.10;;
54871;SDS011;43914;57.680;11.982;2023-04-16T05:01:29;13.10;;;4.20;;
54871;SDS011;43914;57.680;11.982;2023-04-16T05:03:54;8.90;;;4.00;;
54871;SDS011;43914;57.680;11.982;2023-04-16T05:06:19;9.10;;;4.20;;
54871;SDS011;43914;57.680;11.982;2023-04-16T05:08:45;12.90;;;4.50;;
54871;SDS011;43914;57.680;11.982;2023-04-16T05:11:13;10.80;;;4.20;;
54871;SDS011;43914;57.680;11.982;2023-04-16T05:13:39;9.20;;;4.00;;
54871;SDS011;43914;57.680;11.982;2023-04-16T05:16:05;12.60;;;4.40;;
54871;SDS011;43914;57.680;11.982;2023-04-16T05:18:31;7.90;;;3.70;;
54871;SDS011;43914;57.680;11.982;2023-04-16T05:20:57;8.50;;;4.10;;
54871;SDS011;43914;57.680;11.982;2023-04-16T05:23:22;10.20;;;3.60;;
54871;SDS011;43914;57.680;11.982;2023-04-16T05:25:48;11.30;;;4.30;;
54871;SDS011;43914;57.680;11.982;2023-04-16T05:28:13;10.50;;;4.00;;
54871;SDS011;43914;57.680;11.982;2023-04-16T05:30:39;9.70;;;4.00;;
54871;SDS011;43914;57.680;11.982;2023-04-16T05:33:04;8.10;;;3.50;;
54871;SDS011;43914;57.680;11.982;2023-04-16T05:35:30;9.40;;;3.80;;
54871;SDS011;43914;57.680;11.982;2023-04-16T05:37:55;10.40;;;3.90;;
54871;SDS011;43914;57.680;11.982;2023-04-16T05:40:20;8.30;;;3.50;;
54871;SDS011;43914;57.680;11.982;2023-04-16T05:42:46;10.20;;;4.00;;
54871;SDS011;43914;57.680;11.982;2023-04-16T05:45:11;11.20;;;4.20;;
54871;SDS011;43914;57.680;11.982;2023-04-16T05:47:37;10.20;;;3.90;;
54871;SDS011;43914;57.680;11.982;2023-04-16T05:50:02;7.90;;;3.30;;
54871;SDS011;43914;57.680;11.982;2023-04-16T05:52:28;9.70;;;3.80;;
54871;SDS011;43914;57.680;11.982;2023-04-16T05:54:54;9.20;;;3.90;;
54871;SDS011;43914;57.680;11.982;2023-04-16T05:57:19;9.40;;;3.70;;
54871;SDS011;43914;57.680;11.982;2023-04-16T05:59:45;9.30;;;4.10;;
54871;SDS011;43914;57.680;11.982;2023-04-16T06:02:10;8.40;;;3.40;;
54871;SDS011;43914;57.680;11.982;2023-04-16T06:04:35;9.10;;;3.40;;
54871;SDS011;43914;57.680;11.982;2023-04-16T06:07:01;10.10;;;4.20;;
54871;SDS011;43914;57.680;11.982;2023-04-16T06:09:27;9.60;;;4.00;;
54871;SDS011;43914;57.680;11.982;2023-04-16T06:11:52;9.10;;;3.90;;
54871;SDS011;43914;57.680;11.982;2023-04-16T06:14:18;9.80;;;3.60;;
54871;SDS011;43914;57.680;11.982;2023-04-16T06:16:43;9.50;;;3.50;;
54871;SDS011;43914;57.680;11.982;2023-04-16T06:19:09;11.90;;;3.70;;
54871;SDS011;43914;57.680;11.982;2023-04-16T06:21:34;8.80;;;3.60;;
54871;SDS011;43914;57.680;11.982;2023-04-16T06:24:01;8.10;;;3.60;;
54871;SDS011;43914;57.680;11.982;2023-04-16T06:26:27;10.10;;;3.90;;
54871;SDS011;43914;57.680;11.982;2023-04-16T06:28:52;7.80;;;3.30;;
54871;SDS011;43914;57.680;11.982;2023-04-16T06:31:18;9.30;;;4.00;;
54871;SDS011;43914;57.680;11.982;2023-04-16T06:33:43;9.70;;;3.90;;
54871;SDS011;43914;57.680;11.982;2023-04-16T06:36:09;9.40;;;3.80;;
54871;SDS011;43914;57.680;11.982;2023-04-16T06:38:35;11.10;;;3.70;;
54871;SDS011;43914;57.680;11.982;2023-04-16T06:41:01;8.50;;;3.50;;
54871;SDS011;43914;57.680;11.982;2023-04-16T06:43:26;9.70;;;3.60;;
54871;SDS011;43914;57.680;11.982;2023-04-16T06:45:52;9.00;;;3.50;;
54871;SDS011;43914;57.680;11.982;2023-04-16T06:48:17;9.50;;;3.70;;
54871;SDS011;43914;57.680;11.982;2023-04-16T06:50:43;8.10;;;3.50;;
54871;SDS011;43914;57.680;11.982;2023-04-16T06:53:08;11.10;;;3.90;;
54871;SDS011;43914;57.680;11.982;2023-04-16T06:55:33;7.90;;;3.40;;
54871;SDS011;43914;57.680;11.982;2023-04-16T06:57:59;8.90;;;3.60;;
54871;SDS011;43914;57.680;11.982;2023-04-16T07:00:25;9.30;;;3.40;;
54871;SDS011;43914;57.680;11.982;2023-04-16T07:02:50;10.50;;;3.80;;
54871;SDS011;43914;57.680;11.982;2023-04-16T07:05:16;9.40;;;3.80;;
54871;SDS011;43914;57.680;11.982;2023-04-16T07:07:41;11.80;;;4.00;;
54871;SDS011;43914;57.680;11.982;2023-04-16T07:10:06;9.10;;;3.60;;
54871;SDS011;43914;57.680;11.982;2023-04-16T07:12:32;8.90;;;3.70;;
54871;SDS011;43914;57.680;11.982;2023-04-16T07:14:58;8.80;;;3.60;;
54871;SDS011;43914;57.680;11.982;2023-04-16T07:17:23;11.60;;;4.00;;
54871;SDS011;43914;57.680;11.982;2023-04-16T07:19:50;8.10;;;3.30;;
54871;SDS011;43914;57.680;11.982;2023-04-16T07:22:16;10.80;;;3.80;;
54871;SDS011;43914;57.680;11.982;2023-04-16T07:24:41;8.80;;;3.40;;
54871;SDS011;43914;57.680;11.982;2023-04-16T07:27:07;9.60;;;4.00;;
54871;SDS011;43914;57.680;11.982;2023-04-16T07:29:32;9.90;;;3.30;;
54871;SDS011;43914;57.680;11.982;2023-04-16T07:31:57;8.00;;;3.40;;
54871;SDS011;43914;57.680;11.982;2023-04-16T07:34:23;13.60;;;3.90;;
54871;SDS011;43914;57.680;11.982;2023-04-16T07:36:48;11.40;;;3.60;;
54871;SDS011;43914;57.680;11.982;2023-04-16T07:39:14;12.00;;;4.00;;
54871;SDS011;43914;57.680;11.982;2023-04-16T07:41:40;8.30;;;3.50;;
54871;SDS011;43914;57.680;11.982;2023-04-16T07:44:05;12.40;;;3.80;;
54871;SDS011;43914;57.680;11.982;2023-04-16T07:46:31;9.80;;;4.00;;
54871;SDS011;43914;57.680;11.982;2023-04-16T07:48:56;9.90;;;3.80;;
54871;SDS011;43914;57.680;11.982;2023-04-16T07:51:22;9.70;;;3.30;;
54871;SDS011;43914;57.680;11.982;2023-04-16T07:53:47;8.10;;;3.40;;
54871;SDS011;43914;57.680;11.982;2023-04-16T07:56:13;9.60;;;4.10;;
54871;SDS011;43914;57.680;11.982;2023-04-16T07:58:38;9.10;;;3.50;;
54871;SDS011;43914;57.680;11.982;2023-04-16T08:01:04;8.80;;;3.40;;
54871;SDS011;43914;57.680;11.982;2023-04-16T08:03:30;9.80;;;3.40;;
54871;SDS011;43914;57.680;11.982;2023-04-16T08:05:55;11.20;;;4.10;;
54871;SDS011;43914;57.680;11.982;2023-04-16T08:08:21;11.40;;;3.60;;
54871;SDS011;43914;57.680;11.982;2023-04-16T08:10:46;10.40;;;3.60;;
54871;SDS011;43914;57.680;11.982;2023-04-16T08:13:12;9.70;;;3.70;;
54871;SDS011;43914;57.680;11.982;2023-04-16T08:15:37;10.40;;;4.20;;
54871;SDS011;43914;57.680;11.982;2023-04-16T08:18:03;12.30;;;3.60;;
54871;SDS011;43914;57.680;11.982;2023-04-16T08:20:30;8.90;;;3.80;;
54871;SDS011;43914;57.680;11.982;2023-04-16T08:22:55;10.70;;;4.00;;
54871;SDS011;43914;57.680;11.982;2023-04-16T08:25:21;8.60;;;3.60;;
54871;SDS011;43914;57.680;11.982;2023-04-16T08:27:48;10.00;;;3.80;;
54871;SDS011;43914;57.680;11.982;2023-04-16T08:30:14;9.10;;;4.00;;
54871;SDS011;43914;57.680;11.982;2023-04-16T08:32:41;10.10;;;3.80;;
54871;SDS011;43914;57.680;11.982;2023-04-16T08:35:07;10.70;;;3.90;;
54871;SDS011;43914;57.680;11.982;2023-04-16T08:37:33;10.40;;;3.90;;
54871;SDS011;43914;57.680;11.982;2023-04-16T08:39:59;8.30;;;3.90;;
54871;SDS011;43914;57.680;11.982;2023-04-16T08:45:08;11.30;;;3.80;;
54871;SDS011;43914;57.680;11.982;2023-04-16T08:47:44;10.50;;;3.80;;
54871;SDS011;43914;57.680;11.982;2023-04-16T08:50:13;8.90;;;3.50;;
54871;SDS011;43914;57.680;11.982;2023-04-16T08:55:17;10.90;;;3.10;;
54871;SDS011;43914;57.680;11.982;2023-04-16T09:00:18;10.20;;;3.70;;
54871;SDS011;43914;57.680;11.982;2023-04-16T09:02:44;12.10;;;4.00;;
54871;SDS011;43914;57.680;11.982;2023-04-16T09:05:11;8.80;;;3.30;;
54871;SDS011;43914;57.680;11.982;2023-04-16T09:07:41;8.60;;;3.60;;
54871;SDS011;43914;57.680;11.982;2023-04-16T09:10:08;10.70;;;3.70;;
54871;SDS011;43914;57.680;11.982;2023-04-16T09:12:34;10.20;;;3.60;;
54871;SDS011;43914;57.680;11.982;2023-04-16T09:15:00;9.30;;;3.60;;
54871;SDS011;43914;57.680;11.982;2023-04-16T09:17:27;11.20;;;4.00;;
54871;SDS011;43914;57.680;11.982;2023-04-16T09:19:53;11.80;;;4.00;;
54871;SDS011;43914;57.680;11.982;2023-04-16T09:22:19;9.10;;;3.80;;
54871;SDS011;43914;57.680;11.982;2023-04-16T09:24:45;8.70;;;3.70;;
54871;SDS011;43914;57.680;11.982;2023-04-16T09:27:11;10.80;;;4.30;;
54871;SDS011;43914;57.680;11.982;2023-04-16T09:29:38;7.60;;;3.40;;
54871;SDS011;43914;57.680;11.982;2023-04-16T09:32:06;11.60;;;4.00;;
54871;SDS011;43914;57.680;11.982;2023-04-16T09:34:33;8.80;;;3.90;;
54871;SDS011;43914;57.680;11.982;2023-04-16T09:37:13;8.80;;;3.60;;
54871;SDS011;43914;57.680;11.982;2023-04-16T09:39:41;9.80;;;3.90;;
54871;SDS011;43914;57.680;11.982;2023-04-16T09:42:07;8.00;;;3.10;;
54871;SDS011;43914;57.680;11.982;2023-04-16T09:44:34;10.20;;;4.20;;
54871;SDS011;43914;57.680;11.982;2023-04-16T09:47:05;9.90;;;3.90;;
54871;SDS011;43914;57.680;11.982;2023-04-16T09:49:39;8.70;;;3.40;;
54871;SDS011;43914;57.680;11.982;2023-04-16T09:57:19;10.70;;;3.90;;
54871;SDS011;43914;57.680;11.982;2023-04-16T09:59:46;9.00;;;3.30;;
54871;SDS011;43914;57.680;11.982;2023-04-16T10:02:13;8.30;;;3.10;;
54871;SDS011;43914;57.680;11.982;2023-04-16T10:04:48;9.00;;;3.80;;
54871;SDS011;43914;57.680;11.982;2023-04-16T10:07:15;7.90;;;3.30;;
54871;SDS011;43914;57.680;11.982;2023-04-16T10:09:42;8.40;;;3.50;;
54871;SDS011;43914;57.680;11.982;2023-04-16T10:12:08;9.30;;;3.60;;
54871;SDS011;43914;57.680;11.982;2023-04-16T10:14:36;11.30;;;3.50;;
54871;SDS011;43914;57.680;11.982;2023-04-16T10:17:02;7.60;;;3.10;;
54871;SDS011;43914;57.680;11.982;2023-04-16T10:19:28;8.90;;;3.70;;
54871;SDS011;43914;57.680;11.982;2023-04-16T10:21:58;9.80;;;3.70;;
54871;SDS011;43914;57.680;11.982;2023-04-16T10:24:24;9.40;;;3.40;;
54871;SDS011;43914;57.680;11.982;2023-04-16T10:26:50;9.90;;;3.50;;
54871;SDS011;43914;57.680;11.982;2023-04-16T10:29:17;10.80;;;4.00;;
54871;SDS011;43914;57.680;11.982;2023-04-16T10:31:44;9.10;;;3.80;;
54871;SDS011;43914;57.680;11.982;2023-04-16T10:34:11;8.30;;;3.50;;
54871;SDS011;43914;57.680;11.982;2023-04-16T10:36:37;9.20;;;3.60;;
54871;SDS011;43914;57.680;11.982;2023-04-16T10:39:06;8.30;;;3.20;;
54871;SDS011;43914;57.680;11.982;2023-04-16T10:41:35;10.70;;;4.10;;
54871;SDS011;43914;57.680;11.982;2023-04-16T10:44:21;7.50;;;3.10;;
54871;SDS011;43914;57.680;11.982;2023-04-16T10:46:49;11.40;;;3.70;;
54871;SDS011;43914;57.680;11.982;2023-04-16T10:49:19;10.30;;;3.50;;
54871;SDS011;43914;57.680;11.982;2023-04-16T10:51:54;9.90;;;3.40;;
54871;SDS011;43914;57.680;11.982;2023-04-16T10:54:25;9.00;;;3.40;;
54871;SDS011;43914;57.680;11.982;2023-04-16T10:56:53;9.10;;;3.30;;
54871;SDS011;43914;57.680;11.982;2023-04-16T10:59:21;8.40;;;3.40;;
54871;SDS011;43914;57.680;11.982;2023-04-16T11:01:49;7.50;;;3.00;;
54871;SDS011;43914;57.680;11.982;2023-04-16T11:12:33;8.90;;;2.80;;
54871;SDS011;43914;57.680;11.982;2023-04-16T11:15:08;8.80;;;3.00;;
54871;SDS011;43914;57.680;11.982;2023-04-16T11:17:38;6.60;;;3.10;;
54871;SDS011;43914;57.680;11.982;2023-04-16T11:20:05;8.00;;;2.80;;
54871;SDS011;43914;57.680;11.982;2023-04-16T11:22:35;9.30;;;3.30;;
54871;SDS011;43914;57.680;11.982;2023-04-16T11:25:01;7.30;;;2.80;;
54871;SDS011;43914;57.680;11.982;2023-04-16T11:27:28;9.80;;;3.20;;
54871;SDS011;43914;57.680;11.982;2023-04-16T11:30:04;7.20;;;2.90;;
54871;SDS011;43914;57.680;11.982;2023-04-16T11:32:34;7.30;;;2.60;;
54871;SDS011;43914;57.680;11.982;2023-04-16T11:35:01;8.90;;;3.20;;
54871;SDS011;43914;57.680;11.982;2023-04-16T11:37:35;9.20;;;2.70;;
54871;SDS011;43914;57.680;11.982;2023-04-16T11:40:05;7.80;;;2.80;;
54871;SDS011;43914;57.680;11.982;2023-04-16T11:42:33;7.30;;;2.70;;
54871;SDS011;43914;57.680;11.982;2023-04-16T11:45:01;8.40;;;3.00;;
54871;SDS011;43914;57.680;11.982;2023-04-16T11:47:28;8.40;;;3.00;;
54871;SDS011;43914;57.680;11.982;2023-04-16T11:49:55;8.10;;;3.20;;
54871;SDS011;43914;57.680;11.982;2023-04-16T11:52:29;8.70;;;2.70;;
54871;SDS011;43914;57.680;11.982;2023-04-16T11:54:57;10.20;;;2.90;;
54871;SDS011;43914;57.680;11.982;2023-04-16T11:57:27;8.40;;;3.00;;
54871;SDS011;43914;57.680;11.982;2023-04-16T11:59:54;7.90;;;2.90;;
54871;SDS011;43914;57.680;11.982;2023-04-16T12:02:36;7.80;;;2.70;;
54871;SDS011;43914;57.680;11.982;2023-04-16T12:05:04;8.10;;;3.20;;
54871;SDS011;43914;57.680;11.982;2023-04-16T12:07:42;8.60;;;3.00;;
54871;SDS011;43914;57.680;11.982;2023-04-16T12:10:09;7.40;;;3.00;;
54871;SDS011;43914;57.680;11.982;2023-04-16T12:12:35;7.00;;;2.50;;
54871;SDS011;43914;57.680;11.982;2023-04-16T12:15:01;6.30;;;2.40;;
54871;SDS011;43914;57.680;11.982;2023-04-16T12:17:28;8.20;;;2.70;;
54871;SDS011;43914;57.680;11.982;2023-04-16T12:19:58;7.10;;;2.90;;
54871;SDS011;43914;57.680;11.982;2023-04-16T12:22:31;9.10;;;2.80;;
54871;SDS011;43914;57.680;11.982;2023-04-16T12:25:05;7.60;;;2.60;;
54871;SDS011;43914;57.680;11.982;2023-04-16T12:30:17;8.00;;;2.70;;
54871;SDS011;43914;57.680;11.982;2023-04-16T12:32:45;8.20;;;2.70;;
54871;SDS011;43914;57.680;11.982;2023-04-16T12:35:11;7.80;;;2.60;;
54871;SDS011;43914;57.680;11.982;2023-04-16T12:37:38;6.50;;;2.40;;
54871;SDS011;43914;57.680;11.982;2023-04-16T12:40:04;7.10;;;2.50;;
54871;SDS011;43914;57.680;11.982;2023-04-16T12:42:31;9.10;;;2.70;;
54871;SDS011;43914;57.680;11.982;2023-04-16T12:45:00;9.20;;;2.90;;
54871;SDS011;43914;57.680;11.982;2023-04-16T12:47:28;9.80;;;2.70;;
54871;SDS011;43914;57.680;11.982;2023-04-16T12:49:54;9.10;;;2.80;;
54871;SDS011;43914;57.680;11.982;2023-04-16T12:52:20;8.10;;;2.30;;
54871;SDS011;43914;57.680;11.982;2023-04-16T12:54:46;7.70;;;2.40;;
54871;SDS011;43914;57.680;11.982;2023-04-16T12:57:11;10.00;;;2.50;;
54871;SDS011;43914;57.680;11.982;2023-04-16T12:59:37;8.80;;;2.60;;
54871;SDS011;43914;57.680;11.982;2023-04-16T13:02:02;5.90;;;2.10;;
54871;SDS011;43914;57.680;11.982;2023-04-16T13:04:28;7.00;;;2.30;;
54871;SDS011;43914;57.680;11.982;2023-04-16T13:06:53;10.60;;;2.60;;
54871;SDS011;43914;57.680;11.982;2023-04-16T13:09:19;7.00;;;2.60;;
54871;SDS011;43914;57.680;11.982;2023-04-16T13:11:44;6.10;;;2.30;;
54871;SDS011;43914;57.680;11.982;2023-04-16T13:14:11;7.90;;;2.30;;
54871;SDS011;43914;57.680;11.982;2023-04-16T13:16:36;9.10;;;2.60;;
54871;SDS011;43914;57.680;11.982;2023-04-16T13:19:03;7.10;;;2.30;;
54871;SDS011;43914;57.680;11.982;2023-04-16T13:21:29;9.00;;;2.30;;
54871;SDS011;43914;57.680;11.982;2023-04-16T13:23:54;10.90;;;2.00;;
54871;SDS011;43914;57.680;11.982;2023-04-16T13:26:20;7.90;;;2.10;;
54871;SDS011;43914;57.680;11.982;2023-04-16T13:28:46;8.30;;;2.20;;
54871;SDS011;43914;57.680;11.982;2023-04-16T13:31:11;8.60;;;2.10;;
54871;SDS011;43914;57.680;11.982;2023-04-16T13:33:39;7.10;;;2.00;;
54871;SDS011;43914;57.680;11.982;2023-04-16T13:36:05;8.90;;;2.70;;
54871;SDS011;43914;57.680;11.982;2023-04-16T13:38:31;8.70;;;2.10;;
54871;SDS011;43914;57.680;11.982;2023-04-16T13:40:56;6.20;;;2.10;;
54871;SDS011;43914;57.680;11.982;2023-04-16T13:43:21;6.40;;;2.00;;
54871;SDS011;43914;57.680;11.982;2023-04-16T13:45:47;8.20;;;2.20;;
54871;SDS011;43914;57.680;11.982;2023-04-16T13:48:12;8.50;;;2.20;;
54871;SDS011;43914;57.680;11.982;2023-04-16T13:50:38;5.90;;;1.90;;
54871;SDS011;43914;57.680;11.982;2023-04-16T13:53:03;9.60;;;2.70;;
54871;SDS011;43914;57.680;11.982;2023-04-16T13:55:29;9.30;;;2.10;;
54871;SDS011;43914;57.680;11.982;2023-04-16T13:57:56;5.70;;;1.80;;
54871;SDS011;43914;57.680;11.982;2023-04-16T14:00:21;6.40;;;2.10;;
54871;SDS011;43914;57.680;11.982;2023-04-16T14:02:47;6.70;;;2.20;;
54871;SDS011;43914;57.680;11.982;2023-04-16T14:05:13;7.20;;;2.40;;
54871;SDS011;43914;57.680;11.982;2023-04-16T14:07:39;6.60;;;2.10;;
54871;SDS011;43914;57.680;11.982;2023-04-16T14:10:05;7.80;;;2.20;;
54871;SDS011;43914;57.680;11.982;2023-04-16T14:12:31;7.50;;;1.90;;
54871;SDS011;43914;57.680;11.982;2023-04-16T14:14:56;6.50;;;2.40;;
54871;SDS011;43914;57.680;11.982;2023-04-16T14:17:22;7.40;;;2.40;;
54871;SDS011;43914;57.680;11.982;2023-04-16T14:19:48;6.80;;;2.30;;
54871;SDS011;43914;57.680;11.982;2023-04-16T14:22:13;7.10;;;2.00;;
54871;SDS011;43914;57.680;11.982;2023-04-16T14:24:41;6.40;;;2.10;;
54871;SDS011;43914;57.680;11.982;2023-04-16T14:27:07;6.60;;;2.10;;
54871;SDS011;43914;57.680;11.982;2023-04-16T14:29:33;7.50;;;2.20;;
54871;SDS011;43914;57.680;11.982;2023-04-16T14:32:00;6.00;;;2.10;;
54871;SDS011;43914;57.680;11.982;2023-04-16T14:34:26;8.00;;;2.30;;
54871;SDS011;43914;57.680;11.982;2023-04-16T14:36:51;6.50;;;2.30;;
54871;SDS011;43914;57.680;11.982;2023-04-16T14:39:17;6.80;;;2.10;;
54871;SDS011;43914;57.680;11.982;2023-04-16T14:41:42;7.40;;;2.20;;
54871;SDS011;43914;57.680;11.982;2023-04-16T14:44:08;6.20;;;2.10;;
54871;SDS011;43914;57.680;11.982;2023-04-16T14:46:33;6.40;;;2.20;;
54871;SDS011;43914;57.680;11.982;2023-04-16T14:49:00;6.10;;;2.20;;
54871;SDS011;43914;57.680;11.982;2023-04-16T14:51:25;6.90;;;2.00;;
54871;SDS011;43914;57.680;11.982;2023-04-16T14:53:51;5.30;;;1.90;;